Time;durP1;ratioP1;P1;durP2;ratioP2;P2;SDS_P1;SDS_P2;PMS_P1;PMS_P2;Temp;Humidity;BMP_temperature;BMP_pressure;BME280_temperature;BME280_humidity;BME280_pressure;Samples;Min_cycle;Max_cycle;Signal;HPM_P1;HPM_P2
2022/01/05 00:00:38;;;;;;;4.28;3.88;;;4.00;99.90;;;;;;4982928;28;20134;-65
2022/01/05 00:03:06;;;;;;;4.20;3.80;;;4.00;99.90;;;;;;4986644;28;20038;-64
2022/01/05 00:05:32;;;;;;;4.75;4.07;;;4.00;99.90;;;;;;4984814;28;20129;-64
2022/01/05 00:07:58;;;;;;;5.32;4.20;;;4.00;99.90;;;;;;4995156;28;20029;-66
2022/01/05 00:10:24;;;;;;;4.82;4.22;;;4.00;99.90;;;;;;4994448;28;20414;-65
2022/01/05 00:12:49;;;;;;;4.68;3.83;;;4.00;99.90;;;;;;4990026;28;20032;-65
2022/01/05 00:15:15;;;;;;;5.78;4.07;;;4.00;99.90;;;;;;4989288;28;20048;-64
2022/01/05 00:17:41;;;;;;;5.07;4.03;;;4.00;99.90;;;;;;4989189;28;20021;-67
2022/01/05 00:20:08;;;;;;;5.50;4.22;;;4.00;99.90;;;;;;4990933;28;20033;-68
2022/01/05 00:22:34;;;;;;;7.07;4.50;;;4.00;99.90;;;;;;4989006;28;20502;-65
2022/01/05 00:25:00;;;;;;;6.15;4.22;;;4.00;99.90;;;;;;4993418;28;20053;-64
2022/01/05 00:27:25;;;;;;;5.15;4.65;;;4.00;99.90;;;;;;4991745;28;20492;-66
2022/01/05 00:29:51;;;;;;;6.68;5.07;;;4.00;99.90;;;;;;4989020;28;20398;-66
2022/01/05 00:32:17;;;;;;;6.03;4.60;;;4.00;99.90;;;;;;4994845;28;20163;-65
2022/01/05 00:34:42;;;;;;;6.47;4.50;;;4.00;99.90;;;;;;5003948;28;20497;-64
2022/01/05 00:37:08;;;;;;;6.20;5.05;;;4.00;99.90;;;;;;4983338;28;20026;-64
2022/01/05 00:39:34;;;;;;;6.45;4.78;;;4.10;99.90;;;;;;4991660;28;20071;-66
2022/01/05 00:42:00;;;;;;;5.88;4.60;;;4.10;99.90;;;;;;4993202;28;20064;-65
2022/01/05 00:44:26;;;;;;;6.20;4.22;;;4.10;99.90;;;;;;4991185;28;20033;-65
2022/01/05 00:46:52;;;;;;;6.40;4.63;;;4.10;99.90;;;;;;4990883;28;20504;-65
2022/01/05 00:49:18;;;;;;;7.18;4.72;;;4.10;99.90;;;;;;4991336;28;20470;-66
2022/01/05 00:51:43;;;;;;;7.50;5.00;;;4.10;99.90;;;;;;4994309;28;20022;-66
2022/01/05 00:54:09;;;;;;;5.13;4.22;;;4.20;99.90;;;;;;4986613;28;20030;-65
2022/01/05 00:56:35;;;;;;;5.35;4.47;;;4.20;99.90;;;;;;4983473;28;20022;-65
2022/01/05 00:59:00;;;;;;;5.47;4.55;;;4.20;99.90;;;;;;4990135;28;20029;-64
2022/01/05 01:01:27;;;;;;;7.53;4.93;;;4.20;99.90;;;;;;4983962;28;20473;-66
2022/01/05 01:03:52;;;;;;;6.10;4.88;;;4.20;99.90;;;;;;4983546;28;20033;-65
2022/01/05 01:06:18;;;;;;;8.55;5.22;;;4.30;99.90;;;;;;4990279;28;20045;-65
2022/01/05 01:08:44;;;;;;;7.90;4.68;;;4.30;99.90;;;;;;4990523;28;20040;-66
2022/01/05 01:11:09;;;;;;;5.75;4.90;;;4.20;99.90;;;;;;4984794;28;20030;-65
2022/01/05 01:13:35;;;;;;;5.75;4.70;;;4.30;99.90;;;;;;4988409;28;20030;-63
2022/01/05 01:16:01;;;;;;;5.60;4.55;;;4.30;99.90;;;;;;4984409;28;20029;-64
2022/01/05 01:18:27;;;;;;;7.55;5.05;;;4.30;99.90;;;;;;4990598;28;20541;-65
2022/01/05 01:20:52;;;;;;;6.15;4.50;;;4.30;99.90;;;;;;4991925;28;20393;-65
2022/01/05 01:23:21;;;;;;;7.72;5.00;;;4.40;99.90;;;;;;4990804;28;20038;-65
2022/01/05 01:25:48;;;;;;;7.78;4.93;;;4.40;99.90;;;;;;4989336;28;20041;-63
2022/01/05 01:28:14;;;;;;;6.10;4.45;;;4.40;99.90;;;;;;4984745;28;20112;-65
2022/01/05 01:30:39;;;;;;;6.78;5.07;;;4.40;99.90;;;;;;4992555;28;20113;-66
2022/01/05 01:33:05;;;;;;;7.70;4.80;;;4.40;99.90;;;;;;4984680;28;20049;-64
2022/01/05 01:35:31;;;;;;;6.72;4.80;;;4.50;99.90;;;;;;4989262;28;20478;-65
2022/01/05 01:37:57;;;;;;;7.03;4.55;;;4.40;99.90;;;;;;4991968;28;20467;-69
2022/01/05 01:40:23;;;;;;;5.78;4.53;;;4.40;99.90;;;;;;4982452;28;20511;-65
2022/01/05 01:42:49;;;;;;;5.25;4.75;;;4.50;99.90;;;;;;4990099;28;20401;-63
2022/01/05 01:45:15;;;;;;;6.43;5.00;;;4.50;99.90;;;;;;4990797;28;20030;-63
2022/01/05 01:47:41;;;;;;;6.50;3.63;;;4.50;99.90;;;;;;4995259;28;20049;-64
2022/01/05 01:50:08;;;;;;;6.85;3.88;;;4.50;99.90;;;;;;4991085;28;20030;-64
2022/01/05 01:52:33;;;;;;;4.93;3.70;;;4.50;99.90;;;;;;5005544;28;20094;-65
2022/01/05 01:55:00;;;;;;;3.05;2.78;;;4.50;99.90;;;;;;5007568;28;20026;-65
2022/01/05 01:57:27;;;;;;;3.33;3.03;;;4.60;99.90;;;;;;4991975;28;20026;-66
2022/01/05 01:59:52;;;;;;;2.70;2.50;;;4.60;99.90;;;;;;4990858;28;20033;-64
2022/01/05 02:02:18;;;;;;;3.90;2.38;;;4.60;99.90;;;;;;4987015;28;20032;-65
2022/01/05 02:04:45;;;;;;;2.85;2.17;;;4.70;99.90;;;;;;4990432;28;20030;-65
2022/01/05 02:07:11;;;;;;;2.17;2.00;;;4.70;99.90;;;;;;4988182;28;20125;-65
2022/01/05 02:09:40;;;;;;;1.70;1.60;;;4.70;99.90;;;;;;4986585;28;20109;-65
2022/01/05 02:12:06;;;;;;;1.80;1.70;;;4.70;99.90;;;;;;4997318;28;20727;-65
2022/01/05 02:14:32;;;;;;;1.60;1.50;;;4.70;99.90;;;;;;4985243;28;20049;-66
2022/01/05 02:17:02;;;;;;;2.00;1.40;;;4.80;99.90;;;;;;4991668;28;20510;-65
2022/01/05 02:19:28;;;;;;;1.40;1.27;;;4.80;99.90;;;;;;4992572;28;20026;-66
2022/01/05 02:21:53;;;;;;;0.90;0.90;;;4.80;99.90;;;;;;4988211;28;20124;-67
2022/01/05 02:24:19;;;;;;;1.05;0.90;;;4.80;99.90;;;;;;4994157;28;20037;-64
2022/01/05 02:26:45;;;;;;;0.90;0.90;;;4.80;99.90;;;;;;4991977;28;20504;-65
2022/01/05 02:29:10;;;;;;;0.90;0.90;;;4.90;99.90;;;;;;4986379;28;20046;-65
2022/01/05 02:31:36;;;;;;;0.90;0.90;;;4.90;99.90;;;;;;5007929;28;20049;-66
2022/01/05 02:34:02;;;;;;;1.80;0.93;;;4.90;99.90;;;;;;4990923;28;20057;-64
2022/01/05 02:36:28;;;;;;;1.52;0.80;;;4.90;99.90;;;;;;4986355;28;20054;-65
2022/01/05 02:38:54;;;;;;;0.88;0.63;;;4.90;99.90;;;;;;4993732;28;20025;-65
2022/01/05 02:41:20;;;;;;;1.25;0.80;;;4.90;99.90;;;;;;4994229;28;20082;-64
2022/01/05 02:43:46;;;;;;;0.70;0.70;;;4.90;99.90;;;;;;4995128;28;20025;-66
2022/01/05 02:46:15;;;;;;;0.80;0.70;;;4.90;99.90;;;;;;4995419;28;20500;-65
2022/01/05 02:48:41;;;;;;;1.55;0.80;;;4.90;99.90;;;;;;4992703;28;20034;-66
2022/01/05 02:51:08;;;;;;;1.88;0.90;;;4.90;99.90;;;;;;4992484;28;20118;-65
2022/01/05 02:53:34;;;;;;;0.60;0.60;;;4.90;99.90;;;;;;4986795;28;20460;-66
2022/01/05 02:55:59;;;;;;;1.15;0.75;;;4.90;99.90;;;;;;4991891;28;20398;-66
2022/01/05 02:58:25;;;;;;;0.70;0.70;;;4.90;99.90;;;;;;4994965;28;20022;-65
2022/01/05 03:00:51;;;;;;;1.08;0.80;;;4.90;99.90;;;;;;4992886;28;20034;-65
2022/01/05 03:03:17;;;;;;;1.13;0.60;;;4.80;99.90;;;;;;4985943;28;20033;-66
2022/01/05 03:05:42;;;;;;;0.63;0.63;;;4.80;99.90;;;;;;4990457;28;20125;-66
2022/01/05 03:08:08;;;;;;;2.55;0.60;;;4.80;99.90;;;;;;4994065;28;20026;-64
2022/01/05 03:10:34;;;;;;;0.60;0.60;;;4.80;99.90;;;;;;4990298;28;20541;-66
2022/01/05 03:13:00;;;;;;;0.43;0.43;;;4.80;99.90;;;;;;4995109;28;20024;-65
2022/01/05 03:15:26;;;;;;;2.38;0.60;;;4.80;99.90;;;;;;4993216;28;20092;-66
2022/01/05 03:17:51;;;;;;;0.55;0.55;;;4.80;99.90;;;;;;4988653;28;20026;-66
2022/01/05 03:20:17;;;;;;;0.38;0.38;;;4.80;99.90;;;;;;4983483;28;20416;-65
2022/01/05 03:22:44;;;;;;;0.50;0.50;;;4.80;99.90;;;;;;4989887;28;20116;-67
2022/01/05 03:25:18;;;;;;;0.60;0.60;;;4.80;99.90;;;;;;4992814;28;20037;-64
2022/01/05 03:27:45;;;;;;;0.50;0.50;;;4.80;99.90;;;;;;4993018;28;20108;-65
2022/01/05 03:30:23;;;;;;;0.57;0.57;;;4.80;99.90;;;;;;4992779;28;20498;-66
2022/01/05 03:33:08;;;;;;;0.68;0.68;;;4.80;99.90;;;;;;5008945;28;20029;-66
2022/01/05 03:35:39;;;;;;;0.73;0.60;;;4.80;99.90;;;;;;4994354;28;20068;-66
2022/01/05 03:38:05;;;;;;;0.77;0.77;;;4.90;99.90;;;;;;4987900;28;20029;-65
2022/01/05 03:40:32;;;;;;;0.90;0.90;;;4.90;99.90;;;;;;4996424;28;20037;-67
2022/01/05 03:42:58;;;;;;;0.60;0.60;;;4.90;99.90;;;;;;4984096;28;20030;-64
2022/01/05 03:45:24;;;;;;;0.70;0.70;;;4.90;99.90;;;;;;4997894;28;20132;-65
2022/01/05 03:47:49;;;;;;;0.70;0.70;;;4.90;99.90;;;;;;4998556;28;20477;-65
2022/01/05 03:50:15;;;;;;;0.60;0.60;;;4.90;99.90;;;;;;4995203;28;20044;-65
2022/01/05 03:52:41;;;;;;;0.98;0.95;;;4.90;99.90;;;;;;4993318;28;20220;-66
2022/01/05 03:55:07;;;;;;;0.57;0.57;;;4.90;99.90;;;;;;4991065;28;20029;-64
2022/01/05 03:57:33;;;;;;;0.70;0.70;;;4.90;99.90;;;;;;4987856;28;20038;-66
2022/01/05 03:59:59;;;;;;;0.60;0.60;;;4.90;99.90;;;;;;4989234;28;20027;-65
2022/01/05 04:02:26;;;;;;;0.70;0.70;;;4.90;99.90;;;;;;4989469;28;20045;-66
2022/01/05 04:04:52;;;;;;;0.60;0.60;;;5.00;99.90;;;;;;4988273;28;20026;-65
2022/01/05 04:07:17;;;;;;;0.60;0.60;;;4.90;99.90;;;;;;5001289;28;20430;-68
2022/01/05 04:09:43;;;;;;;0.60;0.60;;;5.00;99.90;;;;;;4992623;28;20030;-65
2022/01/05 04:12:09;;;;;;;0.50;0.50;;;5.00;99.90;;;;;;4990707;28;20026;-65
2022/01/05 04:14:35;;;;;;;0.90;0.55;;;5.00;99.90;;;;;;4989530;28;20022;-67
2022/01/05 04:17:01;;;;;;;0.60;0.60;;;5.00;99.90;;;;;;4984186;28;20028;-66
2022/01/05 04:19:26;;;;;;;0.50;0.50;;;5.00;99.90;;;;;;4990938;28;20108;-65
2022/01/05 04:21:52;;;;;;;0.40;0.40;;;5.00;99.90;;;;;;4992056;28;20121;-65
2022/01/05 04:24:18;;;;;;;0.50;0.50;;;5.00;99.90;;;;;;5003189;28;20030;-65
2022/01/05 04:26:43;;;;;;;0.43;0.43;;;5.00;99.90;;;;;;4988361;28;20061;-65
2022/01/05 04:29:10;;;;;;;0.40;0.40;;;5.00;99.90;;;;;;4988482;28;20068;-65
2022/01/05 04:31:36;;;;;;;0.85;0.50;;;4.90;99.90;;;;;;4984966;28;20391;-68
2022/01/05 04:34:02;;;;;;;1.17;0.50;;;4.90;99.90;;;;;;5001933;28;20102;-65
2022/01/05 04:36:28;;;;;;;0.50;0.50;;;4.90;99.90;;;;;;4981969;28;20394;-66
2022/01/05 04:38:54;;;;;;;0.50;0.50;;;4.80;99.90;;;;;;4991770;28;20026;-65
2022/01/05 04:41:20;;;;;;;0.40;0.40;;;4.80;99.90;;;;;;4985374;28;20506;-65
2022/01/05 04:43:45;;;;;;;0.60;0.60;;;4.80;99.90;;;;;;4990320;28;20975;-64
2022/01/05 04:46:11;;;;;;;1.52;0.55;;;4.80;99.90;;;;;;4987640;28;20025;-64
2022/01/05 04:48:37;;;;;;;1.17;0.45;;;4.80;99.90;;;;;;4985228;28;20041;-66
2022/01/05 04:51:03;;;;;;;0.40;0.40;;;4.80;99.90;;;;;;4991266;28;20026;-64
2022/01/05 04:53:29;;;;;;;0.60;0.60;;;4.80;99.90;;;;;;4990474;28;20025;-65
2022/01/05 04:55:55;;;;;;;0.40;0.40;;;4.80;99.90;;;;;;4986216;28;20022;-65
2022/01/05 04:58:21;;;;;;;2.03;0.57;;;4.70;99.90;;;;;;4989943;28;20532;-65
2022/01/05 05:00:46;;;;;;;0.40;0.40;;;4.70;99.90;;;;;;4989013;28;20149;-66
2022/01/05 05:03:12;;;;;;;1.52;0.60;;;4.70;99.90;;;;;;4984401;28;20034;-64
2022/01/05 05:05:38;;;;;;;1.58;0.50;;;4.70;99.90;;;;;;4993564;28;20090;-65
2022/01/05 05:08:04;;;;;;;0.40;0.40;;;4.60;99.90;;;;;;4988090;28;20026;-64
2022/01/05 05:10:30;;;;;;;0.50;0.50;;;4.60;99.90;;;;;;5010050;28;20133;-65
2022/01/05 05:12:56;;;;;;;0.50;0.50;;;4.60;99.90;;;;;;4987108;28;20030;-66
2022/01/05 05:15:21;;;;;;;0.50;0.50;;;4.60;99.90;;;;;;4988699;28;20076;-66
2022/01/05 05:17:47;;;;;;;0.75;0.70;;;4.60;99.90;;;;;;5001934;28;20061;-65
2022/01/05 05:20:13;;;;;;;0.60;0.60;;;4.60;99.90;;;;;;4981533;28;20423;-66
2022/01/05 05:22:38;;;;;;;0.50;0.50;;;4.60;99.90;;;;;;4982707;28;20188;-66
2022/01/05 05:25:05;;;;;;;0.55;0.55;;;4.60;99.90;;;;;;4986582;28;20033;-65
2022/01/05 05:27:31;;;;;;;0.40;0.40;;;4.60;99.90;;;;;;5006664;28;20075;-65
2022/01/05 05:29:56;;;;;;;0.50;0.50;;;4.60;99.90;;;;;;4989711;28;20030;-66
2022/01/05 05:32:22;;;;;;;1.85;0.70;;;4.60;99.90;;;;;;4988237;28;20018;-65
2022/01/05 05:34:48;;;;;;;1.40;0.75;;;4.60;99.90;;;;;;4989955;28;20445;-66
2022/01/05 05:37:16;;;;;;;0.70;0.70;;;4.70;99.90;;;;;;4991853;28;20033;-66
2022/01/05 05:39:43;;;;;;;1.02;0.57;;;4.70;99.90;;;;;;4989087;28;20096;-65
2022/01/05 05:42:09;;;;;;;0.70;0.70;;;4.60;99.90;;;;;;4989032;28;20044;-66
2022/01/05 05:44:35;;;;;;;1.05;0.88;;;4.60;99.90;;;;;;4997532;28;20026;-66
2022/01/05 05:47:02;;;;;;;0.80;0.80;;;4.60;99.90;;;;;;5009175;28;20049;-66
2022/01/05 05:49:27;;;;;;;1.30;0.90;;;4.60;99.90;;;;;;5016580;28;20112;-64
2022/01/05 05:51:53;;;;;;;0.90;0.90;;;4.50;99.90;;;;;;5013080;28;20140;-66
2022/01/05 05:54:18;;;;;;;1.05;0.93;;;4.40;99.90;;;;;;4994242;28;20461;-65
2022/01/05 05:56:44;;;;;;;1.00;1.00;;;4.30;99.90;;;;;;4992864;28;20034;-66
2022/01/05 05:59:10;;;;;;;1.73;0.70;;;4.20;99.90;;;;;;4992084;28;20048;-67
2022/01/05 06:01:35;;;;;;;1.15;1.10;;;4.10;99.90;;;;;;4992871;28;20045;-65
2022/01/05 06:04:01;;;;;;;1.30;1.30;;;4.00;99.90;;;;;;4992882;28;20040;-65
2022/01/05 06:06:27;;;;;;;1.08;1.08;;;3.90;99.90;;;;;;4996269;28;20087;-67
2022/01/05 06:08:54;;;;;;;1.20;1.20;;;3.90;99.90;;;;;;4995999;28;20037;-66
2022/01/05 06:11:19;;;;;;;1.33;1.33;;;3.80;99.90;;;;;;4997451;28;20061;-65
2022/01/05 06:13:45;;;;;;;1.00;1.00;;;3.80;99.90;;;;;;4996457;28;20053;-65
2022/01/05 06:16:11;;;;;;;1.17;1.13;;;3.80;99.90;;;;;;4990339;28;20542;-66
2022/01/05 06:18:36;;;;;;;1.08;1.08;;;3.70;99.90;;;;;;4996140;28;20029;-66
2022/01/05 06:21:05;;;;;;;1.00;1.00;;;3.70;99.90;;;;;;5017982;28;20038;-65
2022/01/05 06:23:31;;;;;;;1.35;1.27;;;3.60;99.90;;;;;;5014953;23;20843;-69
2022/01/05 06:25:56;;;;;;;1.13;1.13;;;3.60;99.90;;;;;;5011412;28;20026;-68
2022/01/05 06:28:22;;;;;;;1.23;1.20;;;3.50;99.90;;;;;;5009594;28;20030;-67
2022/01/05 06:30:48;;;;;;;1.75;1.15;;;3.50;99.90;;;;;;5011823;28;20030;-68
2022/01/05 06:33:13;;;;;;;1.85;1.17;;;3.40;99.90;;;;;;5012258;28;20107;-67
2022/01/05 06:35:39;;;;;;;1.65;1.40;;;3.40;99.90;;;;;;5012997;28;20161;-67
2022/01/05 06:38:05;;;;;;;1.20;1.10;;;3.40;99.90;;;;;;5011811;28;20033;-67
2022/01/05 06:40:31;;;;;;;13.82;8.30;;;3.30;99.90;;;;;;5012983;28;20030;-68
2022/01/05 06:42:59;;;;;;;1.40;1.30;;;3.30;99.90;;;;;;5012293;28;20044;-67
2022/01/05 06:45:24;;;;;;;2.55;1.30;;;3.30;99.90;;;;;;5012421;28;20038;-67
2022/01/05 06:47:50;;;;;;;1.48;1.25;;;3.30;99.90;;;;;;5011807;28;20041;-67
2022/01/05 06:50:16;;;;;;;1.98;1.00;;;3.30;99.90;;;;;;5012527;28;20069;-67
2022/01/05 06:52:42;;;;;;;3.08;1.25;;;3.20;99.90;;;;;;5012482;28;20060;-70
2022/01/05 06:55:09;;;;;;;3.50;1.23;;;3.20;99.90;;;;;;5017175;28;20053;-68
2022/01/05 06:57:37;;;;;;;1.90;1.50;;;3.10;99.90;;;;;;5011249;28;20026;-67
2022/01/05 07:00:04;;;;;;;4.05;1.40;;;3.00;99.90;;;;;;5012573;28;20076;-67
2022/01/05 07:02:30;;;;;;;4.38;1.40;;;3.00;99.90;;;;;;5012161;28;20034;-67
2022/01/05 07:04:56;;;;;;;2.88;1.92;;;2.90;99.90;;;;;;5012639;28;20084;-67
2022/01/05 07:07:22;;;;;;;4.57;1.88;;;2.80;99.90;;;;;;5012682;28;20026;-67
2022/01/05 07:09:48;;;;;;;3.90;1.48;;;2.80;99.90;;;;;;5012056;28;20056;-68
2022/01/05 07:12:14;;;;;;;2.85;1.88;;;2.80;99.90;;;;;;5013338;28;20476;-68
2022/01/05 07:14:40;;;;;;;2.80;1.90;;;2.80;99.90;;;;;;5012963;28;20026;-66
2022/01/05 07:17:05;;;;;;;2.67;1.60;;;2.80;99.90;;;;;;5011805;28;20478;-67
2022/01/05 07:19:31;;;;;;;5.45;2.13;;;2.70;99.90;;;;;;5012739;28;20022;-68
2022/01/05 07:21:57;;;;;;;4.05;1.55;;;2.70;99.90;;;;;;5012848;28;20121;-68
2022/01/05 07:24:22;;;;;;;1.90;1.50;;;2.70;99.90;;;;;;5020554;28;20045;-69
2022/01/05 07:26:48;;;;;;;3.88;1.77;;;2.70;99.90;;;;;;5029113;28;20037;-67
2022/01/05 07:29:16;;;;;;;3.45;1.40;;;2.60;99.90;;;;;;5010432;28;20025;-67
2022/01/05 07:31:42;;;;;;;4.32;1.70;;;2.60;99.90;;;;;;5010978;28;20478;-67
2022/01/05 07:34:08;;;;;;;4.63;1.60;;;2.50;99.90;;;;;;5011979;28;20105;-68
2022/01/05 07:36:34;;;;;;;2.75;1.98;;;2.40;99.90;;;;;;5012911;28;20067;-68
2022/01/05 07:39:02;;;;;;;1.88;1.75;;;2.50;99.90;;;;;;5011417;28;20499;-68
2022/01/05 07:41:29;;;;;;;2.92;1.80;;;2.40;99.90;;;;;;5012398;28;20147;-68
2022/01/05 07:43:54;;;;;;;6.85;1.92;;;2.40;99.90;;;;;;5010542;28;20033;-68
2022/01/05 07:46:20;;;;;;;4.22;1.83;;;2.40;99.90;;;;;;5012443;28;20030;-69
2022/01/05 07:48:46;;;;;;;6.28;1.85;;;2.50;99.90;;;;;;5011472;28;20475;-68
2022/01/05 07:51:12;;;;;;;3.70;1.50;;;2.50;99.90;;;;;;5012406;28;20032;-68
2022/01/05 07:53:38;;;;;;;1.75;1.45;;;2.50;99.90;;;;;;5011144;28;20049;-68
2022/01/05 07:56:04;;;;;;;3.25;1.50;;;2.50;99.90;;;;;;5010895;28;20053;-68
2022/01/05 07:58:29;;;;;;;5.90;1.45;;;2.50;99.90;;;;;;5010789;28;20112;-68
2022/01/05 08:00:55;;;;;;;8.10;1.90;;;2.50;99.90;;;;;;5011916;28;20030;-69
2022/01/05 08:03:20;;;;;;;4.18;1.98;;;2.60;99.90;;;;;;5015015;28;20092;-68
2022/01/05 08:05:46;;;;;;;4.18;1.80;;;2.60;99.90;;;;;;5012073;28;20030;-68
2022/01/05 08:08:12;;;;;;;2.97;1.70;;;2.60;99.90;;;;;;5011102;28;20025;-69
2022/01/05 08:10:38;;;;;;;3.28;1.70;;;2.60;99.90;;;;;;5011611;28;20448;-68
2022/01/05 08:13:03;;;;;;;3.33;1.70;;;2.50;99.90;;;;;;5011264;28;20581;-68
2022/01/05 08:15:29;;;;;;;3.22;1.55;;;2.50;99.90;;;;;;5014665;28;20022;-69
2022/01/05 08:17:55;;;;;;;2.20;1.60;;;2.40;99.90;;;;;;5017915;28;20108;-68
2022/01/05 08:20:20;;;;;;;5.05;2.00;;;2.30;99.90;;;;;;5010316;28;20053;-69
2022/01/05 08:22:46;;;;;;;3.88;2.30;;;2.30;99.90;;;;;;5013443;28;20154;-68
2022/01/05 08:25:15;;;;;;;3.67;2.30;;;2.20;99.90;;;;;;5011541;28;20034;-68
2022/01/05 08:27:46;;;;;;;3.20;2.10;;;2.20;99.90;;;;;;5010804;28;20030;-68
2022/01/05 08:30:13;;;;;;;4.00;2.50;;;2.10;99.90;;;;;;5008251;28;20076;-68
2022/01/05 08:32:38;;;;;;;8.82;4.65;;;2.10;99.90;;;;;;5011759;28;20022;-68
2022/01/05 08:35:05;;;;;;;4.82;4.05;;;2.10;99.90;;;;;;5011726;28;20022;-70
2022/01/05 08:37:31;;;;;;;7.82;4.35;;;2.10;99.90;;;;;;5010681;28;20482;-68
2022/01/05 08:39:56;;;;;;;7.10;2.85;;;2.10;99.90;;;;;;5011622;28;20038;-69
2022/01/05 08:42:22;;;;;;;4.60;2.42;;;2.10;99.90;;;;;;5011555;28;20028;-68
2022/01/05 08:44:48;;;;;;;3.00;2.70;;;2.10;99.90;;;;;;5012366;28;20170;-68
2022/01/05 08:47:13;;;;;;;10.30;5.47;;;2.10;99.90;;;;;;5010771;28;20072;-68
2022/01/05 08:49:39;;;;;;;3.33;1.80;;;2.10;99.90;;;;;;5011162;28;20018;-68
2022/01/05 08:52:05;;;;;;;4.65;2.28;;;2.10;99.90;;;;;;5011281;28;20080;-68
2022/01/05 08:54:30;;;;;;;5.03;2.00;;;2.20;99.90;;;;;;5011140;28;20393;-69
2022/01/05 08:56:56;;;;;;;4.65;1.60;;;2.20;99.90;;;;;;5010979;28;20129;-68
2022/01/05 08:59:22;;;;;;;7.57;2.20;;;2.20;99.90;;;;;;5011822;28;20033;-69
2022/01/05 09:01:47;;;;;;;3.55;1.80;;;2.20;99.90;;;;;;5011274;28;20499;-68
2022/01/05 09:04:13;;;;;;;4.75;2.63;;;2.30;99.90;;;;;;5007542;28;20027;-69
2022/01/05 09:06:39;;;;;;;2.08;1.60;;;2.30;99.90;;;;;;5007863;28;20083;-69
2022/01/05 09:09:04;;;;;;;2.42;1.60;;;2.30;99.90;;;;;;5010303;28;20041;-68
2022/01/05 09:11:30;;;;;;;4.20;2.20;;;2.40;99.90;;;;;;5010922;28;20030;-68
2022/01/05 09:13:56;;;;;;;4.25;1.40;;;2.40;99.90;;;;;;5010852;28;20029;-68
2022/01/05 09:16:22;;;;;;;6.07;1.75;;;2.40;99.90;;;;;;5011053;28;20466;-68
2022/01/05 09:18:49;;;;;;;3.25;1.73;;;2.40;99.90;;;;;;5009783;28;20113;-68
2022/01/05 09:21:15;;;;;;;1.90;1.33;;;2.40;99.90;;;;;;5010956;28;20601;-70
2022/01/05 09:23:43;;;;;;;4.25;2.05;;;2.40;99.90;;;;;;5010565;28;20113;-68
2022/01/05 09:26:09;;;;;;;6.15;1.70;;;2.40;99.90;;;;;;5010893;28;20034;-68
2022/01/05 09:28:42;;;;;;;2.55;1.65;;;2.40;99.90;;;;;;5009673;28;20486;-69
2022/01/05 09:31:08;;;;;;;2.47;1.40;;;2.50;99.90;;;;;;5010201;28;20486;-68
2022/01/05 09:33:34;;;;;;;3.60;1.42;;;2.60;99.90;;;;;;5014113;28;20097;-70
2022/01/05 09:36:09;;;;;;;3.72;1.30;;;2.50;99.90;;;;;;5010802;28;20029;-68
2022/01/05 09:41:56;;;;;;;4.78;1.55;;;2.50;99.90;;;;;;5009930;28;20033;-69
2022/01/05 09:44:11;;;;;;;3.55;1.48;;;2.50;99.90;;;;;;5011859;28;20367;-68
2022/01/05 09:47:05;;;;;;;7.15;2.35;;;2.60;99.90;;;;;;5010262;28;20033;-70
2022/01/05 09:49:37;;;;;;;6.40;1.50;;;2.50;99.90;;;;;;5018457;28;20103;-68
2022/01/05 09:52:08;;;;;;;5.55;1.58;;;2.40;99.90;;;;;;5010648;28;20075;-69
2022/01/05 09:54:37;;;;;;;6.77;1.63;;;2.40;99.90;;;;;;5010389;28;20033;-68
2022/01/05 09:57:05;;;;;;;7.20;1.77;;;2.30;99.90;;;;;;5009682;28;20287;-70
2022/01/05 09:59:34;;;;;;;8.82;1.60;;;2.30;99.90;;;;;;5010247;28;20165;-69
2022/01/05 10:02:00;;;;;;;7.47;1.73;;;2.20;99.90;;;;;;5013988;28;20483;-68
2022/01/05 10:04:26;;;;;;;4.72;1.85;;;2.20;99.90;;;;;;5010103;28;20029;-68
2022/01/05 10:06:52;;;;;;;4.97;2.13;;;2.10;99.90;;;;;;5010642;28;20386;-68
2022/01/05 10:09:18;;;;;;;8.10;1.70;;;2.10;99.90;;;;;;5009732;28;20069;-68
2022/01/05 10:11:43;;;;;;;4.63;1.33;;;2.00;99.90;;;;;;5010061;28;20080;-68
2022/01/05 10:14:12;;;;;;;2.88;1.40;;;2.00;99.90;;;;;;5010198;28;20033;-68
2022/01/05 10:16:39;;;;;;;6.35;1.60;;;2.00;99.90;;;;;;5007554;28;20060;-68
2022/01/05 10:19:06;;;;;;;8.65;1.98;;;2.00;99.90;;;;;;5008749;28;20144;-68
2022/01/05 10:21:39;;;;;;;6.00;1.48;;;1.90;99.90;;;;;;5010251;28;20049;-68
2022/01/05 10:24:05;;;;;;;5.75;1.90;;;2.00;99.90;;;;;;5026311;28;20040;-68
2022/01/05 10:26:34;;;;;;;4.30;1.45;;;2.00;99.90;;;;;;5010355;28;20030;-69
2022/01/05 10:29:14;;;;;;;4.63;1.17;;;2.10;99.90;;;;;;5009327;28;20034;-69
2022/01/05 10:31:41;;;;;;;7.05;1.48;;;2.10;99.90;;;;;;5013526;28;20036;-69
2022/01/05 10:34:21;;;;;;;5.45;1.40;;;2.20;99.90;;;;;;5009806;28;20022;-68
2022/01/05 10:36:57;;;;;;;7.43;1.42;;;2.20;99.90;;;;;;5010232;28;20429;-70
2022/01/05 10:39:30;;;;;;;6.63;1.50;;;2.20;99.90;;;;;;5009368;28;20025;-68
2022/01/05 10:41:55;;;;;;;6.68;2.22;;;2.20;99.90;;;;;;5010069;28;20084;-69
2022/01/05 10:44:25;;;;;;;10.77;1.75;;;2.30;99.90;;;;;;5010241;28;20033;-68
2022/01/05 10:46:52;;;;;;;6.65;1.60;;;2.30;99.90;;;;;;5026503;28;20030;-68
2022/01/05 10:49:22;;;;;;;2.15;1.10;;;2.30;99.90;;;;;;5009197;28;20034;-69
2022/01/05 10:51:48;;;;;;;6.10;1.83;;;2.40;99.90;;;;;;5023855;28;20040;-69
2022/01/05 10:54:16;;;;;;;6.32;1.83;;;2.40;99.90;;;;;;4993978;28;20059;-68
2022/01/05 10:56:42;;;;;;;6.05;1.65;;;2.30;99.90;;;;;;4994238;28;20086;-68
2022/01/05 10:59:08;;;;;;;9.88;1.65;;;2.30;99.90;;;;;;5015389;28;20018;-69
2022/01/05 11:01:34;;;;;;;5.60;1.40;;;2.30;99.90;;;;;;5015006;28;20525;-68
2022/01/05 11:04:18;;;;;;;4.97;1.52;;;2.30;99.90;;;;;;5012667;28;20045;-68
2022/01/05 11:07:04;;;;;;;7.32;1.50;;;2.30;99.90;;;;;;5019031;28;20129;-68
2022/01/05 11:09:31;;;;;;;6.38;1.48;;;2.40;99.90;;;;;;5007836;28;20518;-68
2022/01/05 11:11:57;;;;;;;8.02;1.77;;;2.40;99.90;;;;;;5013097;28;20386;-68
2022/01/05 11:14:33;;;;;;;7.15;1.60;;;2.50;99.90;;;;;;5028943;28;20022;-68
2022/01/05 11:17:04;;;;;;;6.63;1.70;;;2.60;99.90;;;;;;5012439;28;20109;-70
2022/01/05 11:19:36;;;;;;;8.45;2.25;;;2.60;99.90;;;;;;5013122;28;20017;-67
2022/01/05 11:22:11;;;;;;;;;;;2.60;99.90;;;;;;5013436;28;20478;-68
2022/01/05 11:24:57;;;;;;;2.95;1.40;;;2.60;99.90;;;;;;5027269;28;20373;-68
2022/01/05 11:27:28;;;;;;;9.70;1.80;;;2.60;99.90;;;;;;5002554;28;20049;-67
2022/01/05 11:29:55;;;;;;;6.97;1.75;;;2.60;99.90;;;;;;5014430;28;20071;-68
2022/01/05 11:32:26;;;;;;;5.57;1.55;;;2.50;99.90;;;;;;5029353;28;20113;-69
2022/01/05 11:34:52;;;;;;;4.68;1.92;;;2.50;99.90;;;;;;5013027;28;20026;-68
2022/01/05 11:37:18;;;;;;;8.98;1.80;;;2.50;99.90;;;;;;5012546;28;20065;-70
2022/01/05 11:39:47;;;;;;;6.07;1.60;;;2.50;99.90;;;;;;5013000;28;20057;-68
2022/01/05 11:42:15;;;;;;;2.95;1.48;;;2.60;99.90;;;;;;5013069;28;20037;-68
2022/01/05 11:44:54;;;;;;;8.88;2.05;;;2.60;99.90;;;;;;5012424;28;20661;-68
2022/01/05 11:47:31;;;;;;;7.20;1.33;;;2.50;99.90;;;;;;5011729;28;20045;-68
2022/01/05 11:50:27;;;;;;;4.18;1.30;;;2.50;99.90;;;;;;5024445;28;20049;-67
2022/01/05 11:52:59;;;;;;;11.80;2.67;;;2.60;99.90;;;;;;5009821;28;20091;-68
2022/01/05 11:55:30;;;;;;;7.10;1.38;;;2.60;99.90;;;;;;5012871;28;20544;-68
2022/01/05 11:58:19;;;;;;;5.38;1.90;;;2.60;99.90;;;;;;5010854;28;20076;-67
2022/01/05 12:00:46;;;;;;;15.02;5.85;;;2.70;99.90;;;;;;5013595;28;20033;-67
2022/01/05 12:03:12;;;;;;;14.45;5.95;;;2.60;99.90;;;;;;4998512;28;20129;-68
2022/01/05 12:06:04;;;;;;;15.85;8.68;;;2.70;99.90;;;;;;4992550;28;20448;-67
2022/01/05 12:08:42;;;;;;;15.90;4.68;;;2.60;99.90;;;;;;5010729;28;20698;-68
2022/01/05 12:11:41;;;;;;;8.55;4.32;;;2.60;99.90;;;;;;5028406;28;20030;-67
2022/01/05 12:14:23;;;;;;;6.22;1.95;;;2.60;99.90;;;;;;5006889;28;20129;-67
2022/01/05 12:19:56;;;;;;;7.78;2.63;;;2.60;99.90;;;;;;5013035;28;20125;-68
2022/01/05 12:22:24;;;;;;;6.85;2.50;;;2.60;99.90;;;;;;5003180;28;20030;-68
2022/01/05 12:24:53;;;;;;;6.35;2.30;;;2.60;99.90;;;;;;5011493;28;20042;-67
2022/01/05 12:27:24;;;;;;;10.00;2.47;;;2.60;99.90;;;;;;5024234;28;20034;-68
2022/01/05 12:29:51;;;;;;;5.78;1.95;;;2.60;99.90;;;;;;5005584;28;20501;-68
2022/01/05 12:32:39;;;;;;;11.65;2.03;;;2.60;99.90;;;;;;5005835;28;20041;-68
2022/01/05 12:35:27;;;;;;;5.43;2.28;;;2.70;99.90;;;;;;4998822;28;20045;-68
2022/01/05 12:37:57;;;;;;;6.40;2.10;;;2.90;99.90;;;;;;5012086;28;20024;-68
2022/01/05 12:40:32;;;;;;;11.23;1.98;;;2.90;99.90;;;;;;5011730;28;20531;-68
2022/01/05 12:43:10;;;;;;;5.07;2.00;;;3.00;99.90;;;;;;5011338;28;20026;-68
2022/01/05 12:45:48;;;;;;;7.15;2.40;;;3.10;99.90;;;;;;5007478;28;20029;-68
2022/01/05 12:48:39;;;;;;;5.18;2.03;;;3.30;99.90;;;;;;5005735;28;20029;-68
2022/01/05 12:51:11;;;;;;;4.50;1.80;;;3.50;99.90;;;;;;5018854;28;20034;-69
2022/01/05 12:53:49;;;;;;;7.93;1.92;;;3.50;99.90;;;;;;5007792;28;20022;-68
2022/01/05 12:56:27;;;;;;;7.72;2.03;;;3.40;99.90;;;;;;5005404;28;20570;-68
2022/01/05 12:58:54;;;;;;;4.10;1.65;;;3.30;99.90;;;;;;5007249;28;20026;-68
2022/01/05 13:01:21;;;;;;;8.85;1.98;;;3.20;99.90;;;;;;5008965;28;20117;-67
2022/01/05 13:03:47;;;;;;;8.50;1.92;;;3.10;99.90;;;;;;4990169;28;20030;-67
2022/01/05 13:06:26;;;;;;;6.28;1.73;;;3.00;99.90;;;;;;5005172;28;20092;-68